Time;durP1;ratioP1;P1;durP2;ratioP2;P2;SDS_P1;SDS_P2;PMS_P1;PMS_P2;Temp;Humidity;BMP_temperature;BMP_pressure;BME280_temperature;BME280_humidity;BME280_pressure;Samples;Min_cycle;Max_cycle;Signal;HPM_P1;HPM_P2
2021/08/02 00:01:35;;;;;;;8.27;2.17;;;;;;;14.38;81.45;101511.75;4977386;28;20062;-73
2021/08/02 00:04:05;;;;;;;6.95;2.50;;;;;;;14.43;81.97;101516.97;4980710;28;20073;-73
2021/08/02 00:06:46;;;;;;;6.43;1.92;;;;;;;14.45;81.99;101512.41;4980706;28;20108;-73
2021/08/02 00:09:17;;;;;;;6.55;2.72;;;;;;;14.42;81.67;101505.38;4977695;28;20382;-73
2021/08/02 00:11:53;;;;;;;6.50;2.00;;;;;;;14.42;81.91;101507.16;4978226;28;20200;-72
2021/08/02 00:14:22;;;;;;;6.73;2.60;;;;;;;14.47;83.11;101511.44;4980887;28;20062;-73
2021/08/02 00:16:51;;;;;;;7.45;2.70;;;;;;;14.48;82.54;101510.47;4980681;28;20308;-72
2021/08/02 00:19:19;;;;;;;6.22;2.17;;;;;;;14.47;83.13;101510.53;4981069;28;20061;-73
2021/08/02 00:21:49;;;;;;;5.45;2.10;;;;;;;14.49;83.50;101505.97;4981465;28;20070;-72
2021/08/02 00:24:18;;;;;;;10.48;2.85;;;;;;;14.48;83.46;101510.47;4979910;28;20077;-72
2021/08/02 00:26:47;;;;;;;8.30;2.80;;;;;;;14.46;83.84;101515.03;4981188;28;20118;-72
2021/08/02 00:29:16;;;;;;;11.00;3.05;;;;;;;14.48;83.73;101512.31;4979198;28;20309;-73
2021/08/02 00:31:44;;;;;;;6.60;2.72;;;;;;;14.50;84.27;101510.44;4979786;28;20085;-73
2021/08/02 00:34:12;;;;;;;6.13;2.65;;;;;;;14.49;84.17;101506.88;4980155;28;20070;-72
2021/08/02 00:36:43;;;;;;;5.03;2.15;;;;;;;14.50;84.25;101508.59;4980483;28;20058;-73
2021/08/02 00:39:23;;;;;;;9.38;2.60;;;;;;;14.48;84.42;101507.81;4981589;28;20062;-73
2021/08/02 00:42:25;;;;;;;8.65;2.70;;;;;;;14.48;85.89;101501.56;4977782;28;20058;-73
2021/08/02 00:45:12;;;;;;;5.32;2.17;;;;;;;14.47;84.61;101503.38;4978029;28;20068;-73
2021/08/02 00:47:46;;;;;;;8.95;2.88;;;;;;;14.41;84.46;101503.59;4979077;28;20073;-73
2021/08/02 00:50:17;;;;;;;4.68;2.35;;;;;;;14.45;84.34;101497.16;4980397;28;20385;-73
2021/08/02 00:52:51;;;;;;;3.70;2.17;;;;;;;14.46;84.26;101506.13;4979797;28;20050;-73
2021/08/02 00:55:21;;;;;;;7.50;2.10;;;;;;;14.42;83.76;101501.78;4979877;28;20074;-73
2021/08/02 00:57:50;;;;;;;9.15;2.47;;;;;;;14.43;83.68;101504.41;4982343;28;20066;-73
2021/08/02 01:00:20;;;;;;;7.15;2.00;;;;;;;14.44;84.06;101506.19;4978126;28;20062;-73
2021/08/02 01:02:51;;;;;;;4.03;2.22;;;;;;;14.41;83.53;101502.72;4979737;28;20122;-73
2021/08/02 01:05:20;;;;;;;5.75;2.60;;;;;;;14.40;83.41;101512.56;4979049;28;20172;-73
2021/08/02 01:07:52;;;;;;;3.92;2.25;;;;;;;14.37;83.22;101500.16;4977266;28;20066;-73
2021/08/02 01:10:22;;;;;;;9.60;2.35;;;;;;;14.43;84.40;101511.59;4980182;28;20073;-73
2021/08/02 01:12:52;;;;;;;7.00;2.33;;;;;;;14.44;83.87;101513.34;4978246;28;20065;-73
2021/08/02 01:15:20;;;;;;;5.13;2.20;;;;;;;14.42;83.06;101510.75;4980854;28;20156;-73
2021/08/02 01:17:50;;;;;;;4.10;1.90;;;;;;;14.35;83.34;101512.78;4978551;28;20369;-73
2021/08/02 01:20:18;;;;;;;5.10;2.13;;;;;;;14.37;83.11;101502.84;4978538;28;20492;-73
2021/08/02 01:22:49;;;;;;;4.93;2.20;;;;;;;14.37;83.00;101513.59;4979309;28;20069;-72
2021/08/02 01:25:54;;;;;;;5.88;2.78;;;;;;;14.34;83.46;101510.13;4974071;28;20100;-73
2021/08/02 01:29:00;;;;;;;7.72;2.40;;;;;;;14.37;83.41;101510.91;4977342;28;20390;-73
2021/08/02 01:31:28;;;;;;;11.80;2.50;;;;;;;14.32;83.16;101510.19;4975384;28;20103;-72
2021/08/02 01:33:56;;;;;;;6.70;2.50;;;;;;;14.32;83.30;101517.34;4980467;28;20076;-73
2021/08/02 01:36:24;;;;;;;7.13;2.60;;;;;;;14.31;83.76;101512.94;4976713;28;20066;-72
2021/08/02 01:38:53;;;;;;;5.70;2.28;;;;;;;14.32;83.36;101522.72;4980610;28;20058;-73
2021/08/02 01:41:21;;;;;;;5.32;2.38;;;;;;;14.29;83.44;101515.66;4977430;28;20066;-74
2021/08/02 01:43:49;;;;;;;4.93;1.85;;;;;;;14.32;83.87;101517.34;4978243;28;20101;-71
2021/08/02 01:46:26;;;;;;;5.72;2.35;;;;;;;14.27;83.55;101513.97;4978100;28;20500;-72
2021/08/02 01:49:01;;;;;;;5.07;2.10;;;;;;;14.25;84.10;101511.34;4980094;28;20153;-72
2021/08/02 01:51:37;;;;;;;7.95;2.35;;;;;;;14.24;84.75;101511.41;4979397;28;20160;-72
2021/08/02 01:54:16;;;;;;;8.50;2.40;;;;;;;14.25;84.19;101507.78;4977473;28;20435;-72
2021/08/02 01:56:50;;;;;;;4.78;2.15;;;;;;;14.23;84.50;101520.38;4977808;28;20077;-72
2021/08/02 01:59:21;;;;;;;7.05;2.67;;;;;;;14.17;84.77;101514.31;4977159;28;20341;-72
2021/08/02 02:01:54;;;;;;;7.68;2.45;;;;;;;14.12;84.68;101516.28;4978467;28;20503;-73
2021/08/02 02:04:27;;;;;;;4.10;1.80;;;;;;;14.10;85.21;101520.84;4981115;28;20042;-73
2021/08/02 02:06:59;;;;;;;4.68;2.20;;;;;;;14.09;85.68;101510.16;4981611;28;20153;-73
2021/08/02 02:09:31;;;;;;;5.95;2.20;;;;;;;14.04;85.83;101504.94;4982708;28;20070;-73
2021/08/02 02:12:01;;;;;;;4.00;2.17;;;;;;;14.01;85.52;101513.09;4981903;28;20070;-73
2021/08/02 02:14:34;;;;;;;10.05;2.45;;;;;;;13.95;85.77;101513.34;4982447;28;20064;-73
2021/08/02 02:17:04;;;;;;;5.45;2.13;;;;;;;13.90;86.15;101521.53;4980614;28;20077;-73
2021/08/02 02:19:33;;;;;;;5.30;2.00;;;;;;;13.86;86.89;101513.66;4981959;28;20062;-73
2021/08/02 02:22:02;;;;;;;6.63;2.30;;;;;;;13.79;86.78;101523.72;4983843;28;20117;-73
2021/08/02 02:24:36;;;;;;;7.10;2.45;;;;;;;13.73;87.02;101527.50;4983017;28;20461;-73
2021/08/02 02:27:04;;;;;;;;;;;;;;;13.73;87.57;101518.56;4981980;28;20054;-73
2021/08/02 02:29:34;;;;;;;7.90;2.17;;;;;;;13.67;87.84;101529.50;4982364;28;20204;-73
2021/08/02 02:32:05;;;;;;;7.95;2.83;;;;;;;13.63;88.52;101526.91;4977588;28;20120;-75
2021/08/02 02:34:35;;;;;;;5.13;2.25;;;;;;;13.59;88.29;101525.28;4984373;28;20386;-73
2021/08/02 02:37:05;;;;;;;5.30;2.22;;;;;;;13.54;88.30;101529.06;4980685;28;20050;-73
2021/08/02 02:39:36;;;;;;;6.68;2.30;;;;;;;13.45;89.02;101525.75;4979990;28;20074;-73
2021/08/02 02:42:04;;;;;;;8.13;2.72;;;;;;;13.42;88.41;101525.84;4980394;28;20062;-73
2021/08/02 02:44:33;;;;;;;7.13;2.28;;;;;;;13.36;89.59;101526.03;4980784;28;20070;-75
2021/08/02 02:47:01;;;;;;;5.13;2.30;;;;;;;13.31;88.94;101525.28;4982306;28;20062;-75
2021/08/02 02:49:30;;;;;;;5.80;2.40;;;;;;;13.24;89.21;101521.91;4982547;28;20066;-73
2021/08/02 02:51:59;;;;;;;7.13;2.53;;;;;;;13.19;89.92;101526.53;4983050;28;20070;-73
2021/08/02 02:54:28;;;;;;;6.13;2.05;;;;;;;13.13;89.48;101528.53;4981350;28;20058;-73
2021/08/02 02:56:58;;;;;;;4.80;2.28;;;;;;;13.04;89.89;101525.25;4980914;28;20066;-73
2021/08/02 02:59:26;;;;;;;6.05;2.17;;;;;;;12.99;90.75;101526.31;4982578;28;20124;-73
2021/08/02 03:01:55;;;;;;;6.82;2.28;;;;;;;12.91;90.93;101531.91;4980471;28;20934;-73
2021/08/02 03:04:29;;;;;;;3.78;2.20;;;;;;;12.86;90.80;101528.50;4977087;28;20066;-73
2021/08/02 03:06:56;;;;;;;;;;;;;;;12.85;89.93;101526.72;4983590;28;20415;-73
2021/08/02 03:09:26;;;;;;;5.22;2.17;;;;;;;12.74;91.14;101531.56;4981899;28;20467;-73
2021/08/02 03:11:53;;;;;;;4.28;2.45;;;;;;;12.68;90.81;101527.25;4981884;28;20050;-73
2021/08/02 03:14:23;;;;;;;6.47;2.38;;;;;;;12.60;91.77;101532.84;4980168;28;20113;-73
2021/08/02 03:16:51;;;;;;;6.05;2.22;;;;;;;12.57;92.15;101530.25;4979928;28;20081;-73
2021/08/02 03:19:19;;;;;;;7.80;2.67;;;;;;;12.55;92.09;101540.13;4982495;28;20058;-73
2021/08/02 03:21:47;;;;;;;6.10;2.60;;;;;;;12.50;92.21;101531.34;4979883;28;20393;-73
2021/08/02 03:24:21;;;;;;;7.65;2.40;;;;;;;12.49;92.40;101538.50;4982183;28;20050;-73
2021/08/02 03:26:56;;;;;;;3.67;2.15;;;;;;;12.43;92.82;101543.13;4980879;28;20054;-73
2021/08/02 03:29:29;;;;;;;4.85;2.47;;;;;;;12.39;92.68;101544.16;4980714;28;20116;-73
2021/08/02 03:32:01;;;;;;;8.40;2.75;;;;;;;12.33;92.76;101546.09;4982214;28;20101;-73
2021/08/02 03:34:31;;;;;;;9.65;2.72;;;;;;;12.29;93.68;101543.53;4980733;28;20085;-73
2021/08/02 03:37:02;;;;;;;4.45;2.30;;;;;;;12.27;92.88;101540.03;4980372;28;20097;-73
2021/08/02 03:39:31;;;;;;;6.63;2.60;;;;;;;12.21;93.42;101540.19;4979237;28;20066;-73
2021/08/02 03:41:59;;;;;;;5.15;2.30;;;;;;;12.17;94.33;101544.75;4982521;28;20116;-72
2021/08/02 03:44:29;;;;;;;4.95;2.33;;;;;;;12.09;93.98;101542.31;4982074;28;20063;-71
2021/08/02 03:46:58;;;;;;;4.88;2.33;;;;;;;12.09;94.10;101550.31;4980445;28;20063;-72
2021/08/02 03:49:25;;;;;;;6.55;2.42;;;;;;;12.05;95.61;101553.13;4982583;28;20066;-72
2021/08/02 03:51:56;;;;;;;5.70;2.15;;;;;;;12.03;94.65;101553.16;4979095;28;20097;-71
2021/08/02 03:54:26;;;;;;;4.85;2.40;;;;;;;12.01;94.14;101552.31;4983027;28;20058;-72
2021/08/02 03:56:54;;;;;;;5.35;2.35;;;;;;;11.96;95.60;101562.25;4980079;28;20042;-73
2021/08/02 03:59:24;;;;;;;5.70;2.67;;;;;;;11.91;94.60;101565.06;4975255;28;21739;-73
2021/08/02 04:01:53;;;;;;;6.10;2.42;;;;;;;11.88;95.04;101565.09;4981910;28;20112;-72
2021/08/02 04:04:21;;;;;;;7.05;2.90;;;;;;;11.85;94.97;101566.97;4980933;28;20051;-72
2021/08/02 04:06:49;;;;;;;6.28;2.78;;;;;;;11.85;95.09;101569.66;4981218;28;20126;-72
2021/08/02 04:09:17;;;;;;;7.18;2.60;;;;;;;11.86;96.16;101572.28;4982245;28;20050;-73
2021/08/02 04:11:45;;;;;;;7.22;2.72;;;;;;;11.85;96.08;101573.22;4977756;28;20390;-72
2021/08/02 04:14:14;;;;;;;6.18;2.75;;;;;;;11.87;95.82;101575.84;4982464;28;20065;-73
2021/08/02 04:16:41;;;;;;;6.25;2.92;;;;;;;11.86;95.99;101572.28;4979180;28;20426;-72
2021/08/02 04:19:11;;;;;;;6.15;3.13;;;;;;;11.82;97.39;101569.75;4981508;28;20076;-73
2021/08/02 04:21:39;;;;;;;10.82;2.80;;;;;;;11.80;97.39;101575.13;4981102;28;20074;-72
2021/08/02 04:24:07;;;;;;;6.75;2.80;;;;;;;11.86;96.58;101574.97;4978373;28;20090;-72
2021/08/02 04:26:35;;;;;;;4.85;2.70;;;;;;;11.84;96.42;101579.47;4979328;28;20235;-73
2021/08/02 04:29:03;;;;;;;9.73;2.80;;;;;;;11.89;96.49;101574.00;4978180;28;20059;-73
2021/08/02 04:31:32;;;;;;;12.90;4.05;;;;;;;11.90;95.73;101582.00;4980256;28;20066;-72
2021/08/02 04:34:03;;;;;;;11.80;4.03;;;;;;;11.92;96.28;101584.66;4982229;28;20070;-73
2021/08/02 04:36:32;;;;;;;10.27;3.60;;;;;;;11.94;96.90;101583.69;4978453;28;20069;-72
2021/08/02 04:39:00;;;;;;;7.32;3.10;;;;;;;11.96;96.67;101583.66;4980329;28;20066;-73
2021/08/02 04:41:28;;;;;;;6.93;3.30;;;;;;;11.95;97.30;101580.13;4980122;28;20061;-73
2021/08/02 04:43:56;;;;;;;8.77;3.17;;;;;;;11.97;96.29;101582.75;4980533;28;20066;-74
2021/08/02 04:46:23;;;;;;;6.47;2.65;;;;;;;11.94;95.68;101581.03;4979893;28;20436;-72
2021/08/02 04:48:51;;;;;;;8.50;3.22;;;;;;;11.94;96.17;101585.50;4977572;28;20449;-71
2021/08/02 04:51:19;;;;;;;11.00;3.80;;;;;;;11.93;96.61;101587.28;4981087;28;20066;-73
2021/08/02 04:53:48;;;;;;;7.22;2.90;;;;;;;11.94;97.46;101580.16;4980028;28;20073;-72
2021/08/02 04:56:16;;;;;;;9.23;3.75;;;;;;;12.02;97.87;101579.94;4982281;28;20059;-72
2021/08/02 04:58:44;;;;;;;7.63;3.20;;;;;;;12.04;97.63;101583.47;4982513;28;20145;-76
2021/08/02 05:01:14;;;;;;;8.80;3.40;;;;;;;12.04;97.36;101587.03;4980579;28;20054;-74
2021/08/02 05:03:42;;;;;;;10.82;3.45;;;;;;;12.12;96.68;101589.47;4976521;28;20537;-75
2021/08/02 05:06:10;;;;;;;9.07;3.20;;;;;;;12.15;97.24;101586.72;4977851;28;20369;-74
2021/08/02 05:08:39;;;;;;;7.30;3.20;;;;;;;12.18;96.60;101589.31;4980328;28;20062;-75
2021/08/02 05:11:08;;;;;;;8.73;3.55;;;;;;;12.22;96.53;101593.66;4977759;28;20067;-74
2021/08/02 05:13:36;;;;;;;6.65;2.92;;;;;;;12.31;96.62;101596.09;4981369;28;20072;-74
2021/08/02 05:16:06;;;;;;;7.53;3.67;;;;;;;12.42;96.79;101592.25;4979694;28;20555;-73
2021/08/02 05:18:46;;;;;;;6.88;3.22;;;;;;;12.55;96.01;101591.00;4979146;28;20306;-73
2021/08/02 05:21:14;;;;;;;9.20;3.17;;;;;;;12.80;95.67;101595.63;4979907;28;20096;-74
2021/08/02 05:23:42;;;;;;;9.68;4.80;;;;;;;13.02;94.50;101595.88;4972829;28;20046;-72
2021/08/02 05:26:11;;;;;;;10.00;3.55;;;;;;;13.27;93.58;101601.34;4979266;28;20165;-73
2021/08/02 05:28:39;;;;;;;9.75;3.67;;;;;;;13.45;92.23;101600.81;4982074;28;20054;-74
2021/08/02 05:31:07;;;;;;;9.70;3.35;;;;;;;13.65;91.78;101599.28;4976425;28;20819;-73
2021/08/02 05:33:51;;;;;;;9.40;3.53;;;;;;;13.67;90.64;101602.78;4981312;28;20063;-74
2021/08/02 05:36:20;;;;;;;8.90;3.38;;;;;;;13.67;90.52;101607.28;4979319;28;20043;-73
2021/08/02 05:38:49;;;;;;;9.70;3.25;;;;;;;14.01;90.08;101602.53;4984492;28;20066;-73
2021/08/02 05:41:19;;;;;;;8.63;3.53;;;;;;;14.33;88.61;101605.88;4982469;28;20430;-72
2021/08/02 05:43:47;;;;;;;8.27;2.85;;;;;;;14.70;88.59;101601.91;4985196;28;20458;-72
2021/08/02 05:46:15;;;;;;;10.45;3.80;;;;;;;14.87;86.69;101608.47;4983650;28;20404;-73
2021/08/02 05:48:43;;;;;;;10.40;3.22;;;;;;;15.11;85.84;101598.56;4981821;28;20089;-72
2021/08/02 05:51:13;;;;;;;11.15;3.85;;;;;;;15.39;85.39;101605.53;4984003;28;20077;-72
2021/08/02 05:53:41;;;;;;;8.35;3.42;;;;;;;15.63;83.69;101603.66;4982627;28;20062;-73
2021/08/02 05:56:11;;;;;;;5.80;2.65;;;;;;;15.90;82.86;101601.66;4982269;28;20062;-76
2021/08/02 05:58:40;;;;;;;8.25;3.85;;;;;;;16.04;80.53;101601.09;4981583;28;20077;-77
2021/08/02 06:01:11;;;;;;;13.63;3.05;;;;;;;16.20;79.07;101604.88;4982973;28;20089;-78
2021/08/02 06:03:39;;;;;;;7.05;2.78;;;;;;;16.32;78.26;101602.59;4983229;28;20062;-76
2021/08/02 06:06:21;;;;;;;6.38;2.72;;;;;;;16.67;77.66;101598.31;4980956;28;20538;-76
2021/08/02 06:08:52;;;;;;;9.02;3.22;;;;;;;16.72;76.32;101599.00;4982910;28;20042;-76
2021/08/02 06:11:20;;;;;;;5.60;3.10;;;;;;;16.97;76.77;101595.16;4982134;28;20353;-75
2021/08/02 06:13:50;;;;;;;7.05;2.35;;;;;;;16.98;73.80;101589.72;4983050;28;20132;-76
2021/08/02 06:16:21;;;;;;;6.10;2.60;;;;;;;16.86;73.09;101587.59;4983526;28;20046;-77
2021/08/02 06:19:03;;;;;;;10.98;2.70;;;;;;;17.12;72.10;101590.88;4979907;28;20065;-75
2021/08/02 06:21:31;;;;;;;5.80;2.38;;;;;;;17.23;73.43;101582.28;4978550;28;20356;-75
2021/08/02 06:23:59;;;;;;;6.90;3.15;;;;;;;17.19;69.85;101592.34;4981909;28;20060;-75
2021/08/02 06:26:28;;;;;;;7.28;2.50;;;;;;;17.40;70.95;101594.94;4983037;28;20062;-76
2021/08/02 06:28:58;;;;;;;7.00;2.90;;;;;;;17.78;71.65;101602.97;4982740;28;20396;-76
2021/08/02 06:31:28;;;;;;;4.78;2.33;;;;;;;18.08;69.40;101596.06;4985670;28;20108;-75
2021/08/02 06:33:56;;;;;;;5.18;2.47;;;;;;;18.45;67.65;101598.63;4980957;28;20058;-76
2021/08/02 06:36:24;;;;;;;5.50;2.42;;;;;;;18.78;67.01;101600.47;4981760;28;20167;-76
2021/08/02 06:38:52;;;;;;;5.10;2.30;;;;;;;18.59;66.45;101590.69;4980019;28;20054;-76
2021/08/02 06:41:20;;;;;;;7.75;2.47;;;;;;;18.85;64.75;101586.56;4982555;28;20677;-73
2021/08/02 06:43:48;;;;;;;4.43;2.00;;;;;;;19.20;63.77;101590.97;4983931;28;20489;-73
2021/08/02 06:46:17;;;;;;;10.73;3.47;;;;;;;18.80;65.45;101606.69;4980617;28;20093;-73
2021/08/02 06:48:45;;;;;;;7.07;2.28;;;;;;;19.30;64.17;101589.47;4983273;28;20058;-73
2021/08/02 06:51:13;;;;;;;5.55;2.40;;;;;;;19.29;62.52;101601.28;4981212;28;20069;-73
2021/08/02 06:53:40;;;;;;;5.15;2.30;;;;;;;19.73;64.27;101592.44;4981917;28;20065;-73
2021/08/02 06:56:08;;;;;;;8.30;2.38;;;;;;;18.65;63.79;101592.16;4983203;28;20062;-73
2021/08/02 06:58:36;;;;;;;3.85;2.00;;;;;;;18.41;64.21;101595.22;4979983;28;20061;-73
2021/08/02 07:01:04;;;;;;;5.57;2.40;;;;;;;18.03;63.88;101608.03;4982413;28;20070;-73
2021/08/02 07:03:34;;;;;;;8.23;2.22;;;;;;;19.08;61.55;101586.25;4980561;28;20062;-72
2021/08/02 07:06:02;;;;;;;4.00;1.90;;;;;;;19.51;58.82;101586.50;4983504;28;20097;-72
2021/08/02 07:08:29;;;;;;;5.45;2.05;;;;;;;18.28;60.94;101599.53;4980856;28;20077;-73
2021/08/02 07:10:57;;;;;;;5.05;2.38;;;;;;;17.83;62.76;101611.72;4981048;28;20066;-73
2021/08/02 07:13:25;;;;;;;5.50;2.28;;;;;;;17.92;63.89;101613.97;4980749;28;20695;-73
2021/08/02 07:15:53;;;;;;;7.15;2.75;;;;;;;18.50;61.68;101601.97;4981191;28;20068;-73
2021/08/02 07:18:22;;;;;;;5.03;2.17;;;;;;;18.37;62.13;101611.66;4982994;28;20073;-72
2021/08/02 07:20:51;;;;;;;4.82;2.08;;;;;;;18.49;62.84;101605.63;4982267;28;20066;-72
2021/08/02 07:23:19;;;;;;;5.40;2.17;;;;;;;18.55;62.73;101613.41;4979731;28;20071;-73
2021/08/02 07:25:47;;;;;;;5.32;2.30;;;;;;;17.71;62.29;101613.22;4982099;28;20080;-72
2021/08/02 07:28:15;;;;;;;6.18;2.70;;;;;;;17.60;65.03;101612.84;4981847;28;20606;-72
2021/08/02 07:30:43;;;;;;;5.97;2.40;;;;;;;17.16;64.91;101614.94;4983216;28;20508;-71
2021/08/02 07:33:11;;;;;;;7.93;2.50;;;;;;;16.95;66.67;101614.09;4976653;28;20154;-72
2021/08/02 07:35:38;;;;;;;5.32;2.25;;;;;;;16.61;67.79;101626.41;4977544;28;20452;-72
2021/08/02 07:38:08;;;;;;;5.30;2.25;;;;;;;16.52;69.60;101628.66;4978320;28;20062;-72
2021/08/02 07:40:36;;;;;;;5.93;2.50;;;;;;;16.23;70.92;101625.41;4975924;28;20533;-71
2021/08/02 07:43:04;;;;;;;7.03;2.17;;;;;;;15.94;71.22;101626.66;4977391;28;20066;-71
2021/08/02 07:45:31;;;;;;;7.05;2.60;;;;;;;16.10;71.02;101632.25;4978992;28;20113;-71
2021/08/02 07:47:59;;;;;;;10.45;3.25;;;;;;;16.09;71.30;101631.41;4973428;28;20070;-71
2021/08/02 07:50:27;;;;;;;6.05;2.20;;;;;;;16.23;69.98;101637.06;4980421;28;20507;-71
2021/08/02 07:52:55;;;;;;;7.28;2.63;;;;;;;16.35;70.90;101632.09;4977704;28;20054;-71
2021/08/02 07:55:25;;;;;;;8.30;2.33;;;;;;;16.34;70.91;101646.47;4977769;28;20085;-71
2021/08/02 07:57:55;;;;;;;5.40;2.30;;;;;;;16.31;71.24;101635.84;4980771;28;20144;-72
2021/08/02 08:00:23;;;;;;;7.70;2.50;;;;;;;16.43;71.22;101641.56;4977079;28;21057;-71
2021/08/02 08:02:54;;;;;;;6.28;2.45;;;;;;;16.30;70.77;101643.06;4978221;28;20066;-71
2021/08/02 08:05:22;;;;;;;4.13;2.40;;;;;;;16.34;72.05;101649.19;4980239;28;20097;-71
2021/08/02 08:07:52;;;;;;;7.95;2.50;;;;;;;16.68;71.44;101643.16;4980832;28;20428;-71
2021/08/02 08:10:21;;;;;;;5.60;2.88;;;;;;;16.73;71.25;101643.84;4979474;28;20274;-71
2021/08/02 08:12:51;;;;;;;8.25;2.67;;;;;;;16.62;71.51;101640.75;4980843;28;20046;-71
2021/08/02 08:15:21;;;;;;;8.15;2.60;;;;;;;17.01;71.56;101639.03;4974812;28;20062;-71
2021/08/02 08:17:50;;;;;;;6.03;2.38;;;;;;;17.43;69.86;101646.91;4977134;28;20989;-71
2021/08/02 08:20:20;;;;;;;7.38;2.47;;;;;;;17.24;68.81;101635.28;4977915;28;21106;-71
2021/08/02 08:22:48;;;;;;;7.15;2.25;;;;;;;17.20;68.98;101644.44;4975308;28;20047;-73
2021/08/02 08:25:16;;;;;;;6.70;2.83;;;;;;;17.65;68.95;101648.59;4978599;28;20538;-71
2021/08/02 08:27:45;;;;;;;5.57;2.30;;;;;;;17.65;68.65;101643.19;4977738;28;20062;-71
2021/08/02 08:30:15;;;;;;;6.85;2.35;;;;;;;17.73;68.55;101647.25;4976693;28;20171;-72
2021/08/02 08:32:43;;;;;;;4.70;2.10;;;;;;;17.73;67.64;101646.38;4978598;28;20086;-71
2021/08/02 08:35:13;;;;;;;7.85;2.20;;;;;;;17.61;67.68;101638.91;4976318;28;20343;-71
2021/08/02 08:37:41;;;;;;;3.72;1.98;;;;;;;17.83;66.86;101641.41;4978619;28;20139;-72
2021/08/02 08:40:11;;;;;;;5.15;2.05;;;;;;;18.12;67.35;101634.56;4976594;28;21578;-71
2021/08/02 08:42:42;;;;;;;5.53;2.15;;;;;;;18.17;65.21;101632.50;4977080;28;20062;-72
2021/08/02 08:45:14;;;;;;;5.90;2.85;;;;;;;18.03;66.02;101645.81;4980533;28;20171;-72
2021/08/02 08:47:43;;;;;;;12.82;2.85;;;;;;;18.73;63.45;101643.09;4976507;28;20106;-72
2021/08/02 08:50:18;;;;;;;5.63;1.98;;;;;;;18.64;62.55;101644.47;4976973;28;20180;-71
2021/08/02 08:52:47;;;;;;;5.05;2.10;;;;;;;18.91;62.59;101642.13;4977486;28;20058;-72
2021/08/02 08:55:15;;;;;;;5.43;2.13;;;;;;;18.69;63.34;101649.63;4974774;28;20109;-72
2021/08/02 08:57:44;;;;;;;4.68;1.90;;;;;;;18.88;62.74;101644.13;4976818;28;20109;-72
2021/08/02 09:00:22;;;;;;;5.55;2.03;;;;;;;18.37;62.77;101650.38;4976250;28;20046;-72
2021/08/02 09:02:54;;;;;;;7.03;2.30;;;;;;;18.43;61.54;101646.47;4978515;28;20046;-72
2021/08/02 09:05:33;;;;;;;5.35;1.80;;;;;;;18.54;60.87;101654.91;4977041;28;20090;-72
2021/08/02 09:08:02;;;;;;;6.10;2.10;;;;;;;19.01;62.39;101656.91;4978108;28;20073;-72
2021/08/02 09:10:30;;;;;;;5.53;2.10;;;;;;;18.99;61.46;101656.13;4977846;28;20074;-73
2021/08/02 09:12:59;;;;;;;7.20;2.00;;;;;;;19.57;57.13;101648.41;4977324;28;20468;-73
2021/08/02 09:15:37;;;;;;;5.05;2.10;;;;;;;20.99;56.02;101643.53;4982069;28;20066;-73
2021/08/02 09:18:08;;;;;;;5.18;2.25;;;;;;;21.36;54.43;101643.91;4978444;28;20068;-72
2021/08/02 09:20:38;;;;;;;6.40;2.28;;;;;;;21.37;53.68;101642.94;4982278;28;20408;-72
2021/08/02 09:23:09;;;;;;;8.13;2.13;;;;;;;22.01;51.47;101636.94;4982913;28;20066;-72
2021/08/02 09:25:46;;;;;;;5.97;2.20;;;;;;;22.22;50.36;101644.59;4980003;28;20062;-73
2021/08/02 09:28:17;;;;;;;5.88;1.83;;;;;;;21.39;51.53;101640.13;4983574;28;20069;-72
2021/08/02 09:30:57;;;;;;;8.32;2.40;;;;;;;20.38;51.27;101641.91;4982757;28;20062;-72
2021/08/02 09:33:27;;;;;;;6.65;2.30;;;;;;;20.52;51.74;101650.06;4983616;28;20436;-73
2021/08/02 09:36:00;;;;;;;5.70;1.90;;;;;;;19.73;53.16;101646.59;4981763;28;20054;-72
2021/08/02 09:38:28;;;;;;;5.07;2.03;;;;;;;20.19;54.90;101650.28;4980231;28;20058;-72
2021/08/02 09:40:58;;;;;;;6.30;2.22;;;;;;;19.55;56.61;101648.50;4983158;28;20057;-72
2021/08/02 09:43:27;;;;;;;7.10;2.05;;;;;;;18.57;56.63;101665.53;4981246;28;20054;-72
2021/08/02 09:46:16;;;;;;;6.00;2.20;;;;;;;18.41;56.90;101660.06;4981356;28;20066;-72
2021/08/02 09:48:46;;;;;;;3.97;2.00;;;;;;;18.28;57.22;101664.34;4981812;28;20064;-72
2021/08/02 09:51:16;;;;;;;7.65;2.45;;;;;;;18.17;58.82;101661.34;4980329;28;20124;-72
2021/08/02 09:53:46;;;;;;;6.45;2.17;;;;;;;17.96;59.28;101663.28;4982754;28;20058;-72
2021/08/02 09:56:17;;;;;;;5.70;2.10;;;;;;;17.82;59.39;101664.81;4980977;28;20349;-72
2021/08/02 09:59:07;;;;;;;7.00;2.72;;;;;;;17.53;60.36;101666.25;4980738;28;20073;-72
2021/08/02 10:01:37;;;;;;;7.03;2.15;;;;;;;17.92;60.34;101666.13;4980309;28;20094;-72
2021/08/02 10:04:07;;;;;;;4.40;2.05;;;;;;;18.02;59.70;101665.69;4982613;28;20058;-72
2021/08/02 10:06:36;;;;;;;5.22;2.25;;;;;;;17.79;59.90;101667.66;4983889;28;20140;-72
2021/08/02 10:09:05;;;;;;;6.70;2.50;;;;;;;18.07;59.84;101672.59;4980600;28;20038;-72
2021/08/02 10:11:33;;;;;;;7.57;2.22;;;;;;;17.89;59.71;101674.41;4981778;28;20152;-73
2021/08/02 10:14:04;;;;;;;6.00;2.10;;;;;;;18.25;59.18;101670.81;4982117;28;20058;-73
2021/08/02 10:16:36;;;;;;;5.15;2.28;;;;;;;18.39;59.15;101667.38;4984232;28;20062;-73
2021/08/02 10:19:06;;;;;;;6.55;2.50;;;;;;;18.25;58.25;101668.09;4980437;28;20096;-73
2021/08/02 10:21:40;;;;;;;11.02;2.50;;;;;;;18.39;58.93;101663.78;4981295;28;20468;-73
2021/08/02 10:24:09;;;;;;;5.55;2.42;;;;;;;18.47;56.31;101665.16;4984497;28;20066;-73
2021/08/02 10:26:38;;;;;;;8.25;2.22;;;;;;;19.40;57.09;101655.66;4979832;28;20066;-73
2021/08/02 10:29:08;;;;;;;6.70;2.20;;;;;;;19.50;55.63;101644.31;4983724;28;20070;-73
2021/08/02 10:31:44;;;;;;;4.97;2.42;;;;;;;19.65;55.43;101654.28;4979668;28;20046;-73
2021/08/02 10:34:18;;;;;;;6.25;2.10;;;;;;;19.25;54.96;101648.41;4982706;28;20326;-73
2021/08/02 10:36:58;;;;;;;5.82;2.13;;;;;;;18.67;55.36;101652.41;4983735;28;20112;-73
2021/08/02 10:39:28;;;;;;;4.50;1.70;;;;;;;18.41;55.77;101649.25;4982215;28;20128;-73
2021/08/02 10:42:08;;;;;;;4.95;2.08;;;;;;;18.95;55.55;101659.97;4980750;28;20149;-73
2021/08/02 10:44:57;;;;;;;7.68;2.55;;;;;;;19.20;54.24;101645.94;4981008;28;20598;-73
2021/08/02 10:47:39;;;;;;;4.97;2.05;;;;;;;19.73;53.08;101643.88;4973290;28;20050;-73
2021/08/02 10:50:11;;;;;;;5.25;2.08;;;;;;;19.99;53.37;101655.06;4976473;28;20054;-72
2021/08/02 10:52:42;;;;;;;3.47;1.90;;;;;;;19.78;51.67;101649.03;4978275;28;20065;-74
2021/08/02 10:55:14;;;;;;;2.65;1.73;;;;;;;19.81;52.43;101648.88;4979023;28;20474;-74
2021/08/02 10:57:45;;;;;;;3.78;1.88;;;;;;;20.40;50.96;101639.97;4978340;28;20203;-73
2021/08/02 11:00:23;;;;;;;4.75;2.00;;;;;;;19.69;50.26;101650.41;4976915;28;20062;-73
2021/08/02 11:02:52;;;;;;;5.68;2.22;;;;;;;19.77;50.50;101647.31;4979565;28;20363;-73
2021/08/02 11:05:24;;;;;;;3.90;1.67;;;;;;;19.60;50.06;101653.66;4977052;28;20710;-73
2021/08/02 11:07:52;;;;;;;5.60;1.90;;;;;;;19.59;50.82;101655.47;4976415;28;20073;-73
2021/08/02 11:10:20;;;;;;;4.55;1.90;;;;;;;19.80;51.28;101655.22;4977523;28;20157;-73
2021/08/02 11:12:49;;;;;;;6.20;2.40;;;;;;;20.54;50.02;101664.41;4976491;28;20050;-72
2021/08/02 11:15:19;;;;;;;3.22;1.77;;;;;;;20.59;49.42;101658.72;4978954;28;20070;-73
2021/08/02 11:17:54;;;;;;;5.55;2.20;;;;;;;19.88;50.04;101660.22;4976726;28;20397;-71
2021/08/02 11:20:24;;;;;;;5.68;2.35;;;;;;;20.64;48.53;101657.47;4978118;28;20093;-72
2021/08/02 11:22:55;;;;;;;5.45;1.90;;;;;;;20.04;48.89;101662.88;4973882;28;22979;-72
2021/08/02 11:25:26;;;;;;;6.50;2.20;;;;;;;20.20;49.49;101673.69;4972419;28;20438;-72
2021/08/02 11:27:56;;;;;;;3.45;1.85;;;;;;;20.28;49.83;101668.69;4973695;28;20057;-72
2021/08/02 11:30:25;;;;;;;5.65;1.98;;;;;;;19.68;50.55;101664.94;4975503;28;20057;-72
2021/08/02 11:32:54;;;;;;;4.18;1.90;;;;;;;19.78;50.08;101662.56;4977360;28;20467;-72
2021/08/02 11:35:34;;;;;;;5.40;1.90;;;;;;;19.85;50.35;101665.78;4977110;28;20453;-72
2021/08/02 11:38:03;;;;;;;4.88;1.95;;;;;;;19.62;50.48;101677.94;4974979;28;20188;-72
2021/08/02 11:40:36;;;;;;;3.80;2.00;;;;;;;19.50;51.21;101679.50;4976309;28;20146;-72